Ainsworth, Iowa
Current Conditions -  °F | °C
As of 12:15 PM on Thursday 29 Jan 2015 (Local Time) from KAWG Reporting Station
Overcast Overcast  
Wind Chill: 25°   Ceiling: 2800
Heat Index: 36°   Visibility: 10mi
Dew Point: 32°   Wind: 21mph
Humidity: 87%   Direction: 310°NW
Pressure: 30.17"   Gusts: 37mph
Location:  41.29°N, 91.55°W
Report Text: KAWG 291815Z AUTO 31018G32KT 10SM SCT019 OVC028 02/00 A3017 RMK AO2
Loading
Personal Weather Stations






























Interactive Weather Map New forecast layout! Learn more

10-Day Weather Forecast

Advertisements
Track Severe Weather on mobile